sensor_id;sensor_type;location;lat;lon;timestamp;P1;durP1;ratioP1;P2;durP2;ratioP2
8572;SDS011;4324;42.012;24.872;2023-03-01T00:02:21;2.87;;;2.67;;
8572;SDS011;4324;42.012;24.872;2023-03-01T00:04:49;2.83;;;2.63;;
8572;SDS011;4324;42.012;24.872;2023-03-01T00:07:16;2.93;;;2.73;;
8572;SDS011;4324;42.012;24.872;2023-03-01T00:09:43;3.20;;;2.90;;
8572;SDS011;4324;42.012;24.872;2023-03-01T00:12:11;2.97;;;2.67;;
8572;SDS011;4324;42.012;24.872;2023-03-01T00:14:38;3.83;;;3.53;;
8572;SDS011;4324;42.012;24.872;2023-03-01T00:17:05;4.30;;;3.97;;
8572;SDS011;4324;42.012;24.872;2023-03-01T00:19:31;4.33;;;4.00;;
8572;SDS011;4324;42.012;24.872;2023-03-01T00:22:00;3.70;;;3.40;;
8572;SDS011;4324;42.012;24.872;2023-03-01T00:24:27;3.87;;;3.57;;
8572;SDS011;4324;42.012;24.872;2023-03-01T00:26:53;3.40;;;3.20;;
8572;SDS011;4324;42.012;24.872;2023-03-01T00:29:23;3.50;;;3.30;;
8572;SDS011;4324;42.012;24.872;2023-03-01T00:31:50;3.87;;;3.57;;
8572;SDS011;4324;42.012;24.872;2023-03-01T00:34:17;3.80;;;3.20;;
8572;SDS011;4324;42.012;24.872;2023-03-01T00:36:44;3.20;;;3.00;;
8572;SDS011;4324;42.012;24.872;2023-03-01T00:39:13;3.37;;;3.17;;
8572;SDS011;4324;42.012;24.872;2023-03-01T00:41:42;3.43;;;3.20;;
8572;SDS011;4324;42.012;24.872;2023-03-01T00:44:10;3.60;;;3.30;;
8572;SDS011;4324;42.012;24.872;2023-03-01T00:46:37;3.60;;;3.30;;
8572;SDS011;4324;42.012;24.872;2023-03-01T00:49:04;3.40;;;3.20;;
8572;SDS011;4324;42.012;24.872;2023-03-01T00:51:31;4.00;;;3.70;;
8572;SDS011;4324;42.012;24.872;2023-03-01T00:53:58;3.93;;;3.63;;
8572;SDS011;4324;42.012;24.872;2023-03-01T00:56:28;3.80;;;3.50;;
8572;SDS011;4324;42.012;24.872;2023-03-01T00:58:55;4.10;;;3.80;;
8572;SDS011;4324;42.012;24.872;2023-03-01T01:01:23;3.90;;;3.60;;
8572;SDS011;4324;42.012;24.872;2023-03-01T01:03:53;4.20;;;3.90;;
8572;SDS011;4324;42.012;24.872;2023-03-01T01:06:22;4.83;;;4.43;;
8572;SDS011;4324;42.012;24.872;2023-03-01T01:08:50;4.60;;;4.20;;
8572;SDS011;4324;42.012;24.872;2023-03-01T01:11:19;4.00;;;3.70;;
8572;SDS011;4324;42.012;24.872;2023-03-01T01:13:48;4.70;;;4.30;;
8572;SDS011;4324;42.012;24.872;2023-03-01T01:16:15;4.33;;;3.93;;
8572;SDS011;4324;42.012;24.872;2023-03-01T01:18:43;4.50;;;4.10;;
8572;SDS011;4324;42.012;24.872;2023-03-01T01:21:11;4.77;;;4.30;;
8572;SDS011;4324;42.012;24.872;2023-03-01T01:23:40;4.60;;;4.20;;
8572;SDS011;4324;42.012;24.872;2023-03-01T01:26:08;4.77;;;4.40;;
8572;SDS011;4324;42.012;24.872;2023-03-01T01:28:37;4.53;;;4.13;;
8572;SDS011;4324;42.012;24.872;2023-03-01T01:31:05;4.83;;;4.43;;
8572;SDS011;4324;42.012;24.872;2023-03-01T01:33:33;4.33;;;3.93;;
8572;SDS011;4324;42.012;24.872;2023-03-01T01:36:00;4.17;;;3.83;;
8572;SDS011;4324;42.012;24.872;2023-03-01T01:38:28;4.20;;;3.90;;
8572;SDS011;4324;42.012;24.872;2023-03-01T01:40:54;3.77;;;3.47;;
8572;SDS011;4324;42.012;24.872;2023-03-01T01:43:22;4.40;;;4.00;;
8572;SDS011;4324;42.012;24.872;2023-03-01T01:45:50;4.20;;;3.90;;
8572;SDS011;4324;42.012;24.872;2023-03-01T01:48:21;4.37;;;4.00;;
8572;SDS011;4324;42.012;24.872;2023-03-01T01:50:52;3.87;;;3.53;;
8572;SDS011;4324;42.012;24.872;2023-03-01T01:53:26;4.40;;;4.00;;
8572;SDS011;4324;42.012;24.872;2023-03-01T01:55:55;4.00;;;3.70;;
8572;SDS011;4324;42.012;24.872;2023-03-01T01:58:27;4.30;;;4.00;;
8572;SDS011;4324;42.012;24.872;2023-03-01T02:00:56;4.73;;;4.33;;
8572;SDS011;4324;42.012;24.872;2023-03-01T02:03:27;3.90;;;3.60;;
8572;SDS011;4324;42.012;24.872;2023-03-01T02:06:03;4.30;;;3.90;;
8572;SDS011;4324;42.012;24.872;2023-03-01T02:08:34;4.23;;;3.87;;
8572;SDS011;4324;42.012;24.872;2023-03-01T02:11:03;3.83;;;3.53;;
8572;SDS011;4324;42.012;24.872;2023-03-01T02:13:31;4.07;;;3.67;;
8572;SDS011;4324;42.012;24.872;2023-03-01T02:16:02;3.80;;;3.50;;
8572;SDS011;4324;42.012;24.872;2023-03-01T02:18:31;4.00;;;3.27;;
8572;SDS011;4324;42.012;24.872;2023-03-01T02:23:48;5.20;;;3.90;;
8572;SDS011;4324;42.012;24.872;2023-03-01T02:26:18;3.00;;;2.70;;
8572;SDS011;4324;42.012;24.872;2023-03-01T02:28:51;2.60;;;2.40;;
8572;SDS011;4324;42.012;24.872;2023-03-01T02:31:19;2.90;;;2.70;;
8572;SDS011;4324;42.012;24.872;2023-03-01T02:34:05;5.13;;;4.60;;
8572;SDS011;4324;42.012;24.872;2023-03-01T02:36:34;5.07;;;4.67;;
8572;SDS011;4324;42.012;24.872;2023-03-01T02:39:04;3.30;;;3.10;;
8572;SDS011;4324;42.012;24.872;2023-03-01T02:41:39;3.57;;;3.27;;
8572;SDS011;4324;42.012;24.872;2023-03-01T02:44:10;3.20;;;2.90;;
8572;SDS011;4324;42.012;24.872;2023-03-01T02:46:41;2.97;;;2.77;;
8572;SDS011;4324;42.012;24.872;2023-03-01T02:49:18;3.50;;;3.17;;
8572;SDS011;4324;42.012;24.872;2023-03-01T02:51:50;7.83;;;4.10;;
8572;SDS011;4324;42.012;24.872;2023-03-01T02:54:28;15.67;;;6.33;;
8572;SDS011;4324;42.012;24.872;2023-03-01T02:57:00;3.60;;;3.30;;
8572;SDS011;4324;42.012;24.872;2023-03-01T02:59:31;3.73;;;3.43;;
8572;SDS011;4324;42.012;24.872;2023-03-01T03:02:04;4.27;;;3.93;;
8572;SDS011;4324;42.012;24.872;2023-03-01T03:04:31;4.30;;;4.00;;
8572;SDS011;4324;42.012;24.872;2023-03-01T03:06:58;4.03;;;3.70;;
8572;SDS011;4324;42.012;24.872;2023-03-01T03:09:25;4.73;;;4.33;;
8572;SDS011;4324;42.012;24.872;2023-03-01T03:11:52;6.20;;;4.87;;
8572;SDS011;4324;42.012;24.872;2023-03-01T03:14:18;4.33;;;3.93;;
8572;SDS011;4324;42.012;24.872;2023-03-01T03:16:47;5.23;;;4.80;;
8572;SDS011;4324;42.012;24.872;2023-03-01T03:19:16;5.53;;;5.07;;
8572;SDS011;4324;42.012;24.872;2023-03-01T03:21:43;6.20;;;5.60;;
8572;SDS011;4324;42.012;24.872;2023-03-01T03:24:10;6.00;;;4.90;;
8572;SDS011;4324;42.012;24.872;2023-03-01T03:26:37;8.07;;;5.30;;
8572;SDS011;4324;42.012;24.872;2023-03-01T03:29:04;7.40;;;5.33;;
8572;SDS011;4324;42.012;24.872;2023-03-01T03:31:31;4.07;;;3.77;;
8572;SDS011;4324;42.012;24.872;2023-03-01T03:33:59;4.27;;;3.97;;
8572;SDS011;4324;42.012;24.872;2023-03-01T03:36:26;4.17;;;3.80;;
8572;SDS011;4324;42.012;24.872;2023-03-01T03:38:53;4.27;;;3.87;;
8572;SDS011;4324;42.012;24.872;2023-03-01T03:41:20;3.93;;;3.63;;
8572;SDS011;4324;42.012;24.872;2023-03-01T03:43:47;4.10;;;3.70;;
8572;SDS011;4324;42.012;24.872;2023-03-01T03:46:14;3.70;;;3.40;;
8572;SDS011;4324;42.012;24.872;2023-03-01T03:48:42;3.80;;;3.50;;
8572;SDS011;4324;42.012;24.872;2023-03-01T03:51:12;3.23;;;3.00;;
8572;SDS011;4324;42.012;24.872;2023-03-01T03:53:41;4.10;;;3.80;;
8572;SDS011;4324;42.012;24.872;2023-03-01T03:56:08;4.70;;;4.30;;
8572;SDS011;4324;42.012;24.872;2023-03-01T03:58:53;3.80;;;3.50;;
8572;SDS011;4324;42.012;24.872;2023-03-01T04:01:20;3.30;;;3.00;;
8572;SDS011;4324;42.012;24.872;2023-03-01T04:03:47;4.57;;;4.17;;
8572;SDS011;4324;42.012;24.872;2023-03-01T04:06:20;5.00;;;4.60;;
8572;SDS011;4324;42.012;24.872;2023-03-01T04:08:48;4.03;;;3.73;;
8572;SDS011;4324;42.012;24.872;2023-03-01T04:11:16;4.23;;;3.90;;
8572;SDS011;4324;42.012;24.872;2023-03-01T04:13:55;3.77;;;3.47;;
8572;SDS011;4324;42.012;24.872;2023-03-01T04:16:24;4.10;;;3.80;;
8572;SDS011;4324;42.012;24.872;2023-03-01T04:18:51;3.83;;;3.53;;
8572;SDS011;4324;42.012;24.872;2023-03-01T04:21:21;3.73;;;3.43;;
8572;SDS011;4324;42.012;24.872;2023-03-01T04:23:48;4.20;;;3.80;;
8572;SDS011;4324;42.012;24.872;2023-03-01T04:26:18;4.00;;;3.70;;
8572;SDS011;4324;42.012;24.872;2023-03-01T04:28:45;4.43;;;4.03;;
8572;SDS011;4324;42.012;24.872;2023-03-01T04:31:15;5.23;;;4.83;;
8572;SDS011;4324;42.012;24.872;2023-03-01T04:33:46;4.80;;;4.40;;
8572;SDS011;4324;42.012;24.872;2023-03-01T04:36:16;4.27;;;3.97;;
8572;SDS011;4324;42.012;24.872;2023-03-01T04:38:47;4.17;;;3.87;;
8572;SDS011;4324;42.012;24.872;2023-03-01T04:41:14;3.93;;;3.63;;
8572;SDS011;4324;42.012;24.872;2023-03-01T04:43:42;3.83;;;3.53;;
8572;SDS011;4324;42.012;24.872;2023-03-01T04:46:11;4.10;;;3.80;;
8572;SDS011;4324;42.012;24.872;2023-03-01T04:48:39;4.10;;;3.70;;
8572;SDS011;4324;42.012;24.872;2023-03-01T04:51:07;4.23;;;3.90;;
8572;SDS011;4324;42.012;24.872;2023-03-01T04:53:34;4.50;;;4.07;;
8572;SDS011;4324;42.012;24.872;2023-03-01T04:56:04;5.23;;;4.80;;
8572;SDS011;4324;42.012;24.872;2023-03-01T04:58:31;4.93;;;4.53;;
8572;SDS011;4324;42.012;24.872;2023-03-01T05:00:58;5.40;;;4.83;;
8572;SDS011;4324;42.012;24.872;2023-03-01T05:03:25;6.87;;;6.27;;
8572;SDS011;4324;42.012;24.872;2023-03-01T05:05:53;7.30;;;6.47;;
8572;SDS011;4324;42.012;24.872;2023-03-01T05:08:20;18.13;;;7.17;;
8572;SDS011;4324;42.012;24.872;2023-03-01T05:10:48;8.83;;;7.60;;
8572;SDS011;4324;42.012;24.872;2023-03-01T05:13:18;12.63;;;11.33;;
8572;SDS011;4324;42.012;24.872;2023-03-01T05:15:47;20.67;;;18.50;;
8572;SDS011;4324;42.012;24.872;2023-03-01T05:18:15;12.57;;;11.27;;
8572;SDS011;4324;42.012;24.872;2023-03-01T05:20:42;13.53;;;11.87;;
8572;SDS011;4324;42.012;24.872;2023-03-01T05:23:09;12.27;;;10.93;;
8572;SDS011;4324;42.012;24.872;2023-03-01T05:25:36;14.03;;;12.53;;
8572;SDS011;4324;42.012;24.872;2023-03-01T05:28:06;13.10;;;11.57;;
8572;SDS011;4324;42.012;24.872;2023-03-01T05:30:38;18.07;;;15.67;;
8572;SDS011;4324;42.012;24.872;2023-03-01T05:33:05;14.33;;;12.93;;
8572;SDS011;4324;42.012;24.872;2023-03-01T05:35:38;12.47;;;11.07;;
8572;SDS011;4324;42.012;24.872;2023-03-01T05:38:06;11.93;;;10.40;;
8572;SDS011;4324;42.012;24.872;2023-03-01T05:40:33;11.93;;;10.73;;
8572;SDS011;4324;42.012;24.872;2023-03-01T05:43:00;9.17;;;8.17;;
8572;SDS011;4324;42.012;24.872;2023-03-01T05:45:30;9.60;;;8.70;;
8572;SDS011;4324;42.012;24.872;2023-03-01T05:48:00;11.73;;;9.83;;
8572;SDS011;4324;42.012;24.872;2023-03-01T05:50:27;11.33;;;10.17;;
8572;SDS011;4324;42.012;24.872;2023-03-01T05:52:57;9.03;;;8.13;;
8572;SDS011;4324;42.012;24.872;2023-03-01T05:55:25;10.10;;;8.27;;
8572;SDS011;4324;42.012;24.872;2023-03-01T05:57:53;8.67;;;7.87;;
8572;SDS011;4324;42.012;24.872;2023-03-01T06:00:20;8.27;;;7.47;;
8572;SDS011;4324;42.012;24.872;2023-03-01T06:02:48;8.00;;;7.20;;
8572;SDS011;4324;42.012;24.872;2023-03-01T06:05:17;7.50;;;6.70;;
8572;SDS011;4324;42.012;24.872;2023-03-01T06:07:45;7.20;;;6.50;;
8572;SDS011;4324;42.012;24.872;2023-03-01T06:10:12;7.10;;;6.40;;
8572;SDS011;4324;42.012;24.872;2023-03-01T06:12:40;7.57;;;6.80;;
8572;SDS011;4324;42.012;24.872;2023-03-01T06:15:09;8.57;;;7.67;;
8572;SDS011;4324;42.012;24.872;2023-03-01T06:17:37;6.00;;;5.40;;
8572;SDS011;4324;42.012;24.872;2023-03-01T06:20:06;6.60;;;6.00;;
8572;SDS011;4324;42.012;24.872;2023-03-01T06:22:37;6.17;;;5.67;;
8572;SDS011;4324;42.012;24.872;2023-03-01T06:25:04;4.33;;;3.93;;
8572;SDS011;4324;42.012;24.872;2023-03-01T06:27:32;4.97;;;4.47;;
8572;SDS011;4324;42.012;24.872;2023-03-01T06:29:59;5.30;;;4.80;;
8572;SDS011;4324;42.012;24.872;2023-03-01T06:32:29;4.83;;;4.33;;
8572;SDS011;4324;42.012;24.872;2023-03-01T06:35:09;6.30;;;5.70;;
8572;SDS011;4324;42.012;24.872;2023-03-01T06:37:38;5.80;;;5.20;;
8572;SDS011;4324;42.012;24.872;2023-03-01T06:40:05;5.67;;;4.97;;
8572;SDS011;4324;42.012;24.872;2023-03-01T06:42:34;5.20;;;4.70;;
8572;SDS011;4324;42.012;24.872;2023-03-01T06:45:01;7.77;;;4.37;;
8572;SDS011;4324;42.012;24.872;2023-03-01T06:47:29;7.17;;;5.83;;
8572;SDS011;4324;42.012;24.872;2023-03-01T06:49:55;10.37;;;7.33;;
8572;SDS011;4324;42.012;24.872;2023-03-01T06:52:22;11.57;;;9.30;;
8572;SDS011;4324;42.012;24.872;2023-03-01T06:54:51;10.70;;;9.47;;
8572;SDS011;4324;42.012;24.872;2023-03-01T06:57:17;11.80;;;9.07;;
8572;SDS011;4324;42.012;24.872;2023-03-01T06:59:44;13.03;;;10.63;;
8572;SDS011;4324;42.012;24.872;2023-03-01T07:02:13;11.10;;;9.20;;
8572;SDS011;4324;42.012;24.872;2023-03-01T07:04:40;15.23;;;10.83;;
8572;SDS011;4324;42.012;24.872;2023-03-01T07:07:08;13.80;;;9.30;;
8572;SDS011;4324;42.012;24.872;2023-03-01T07:09:35;17.83;;;12.10;;
8572;SDS011;4324;42.012;24.872;2023-03-01T07:12:04;15.47;;;11.13;;
8572;SDS011;4324;42.012;24.872;2023-03-01T07:14:31;12.17;;;8.30;;
8572;SDS011;4324;42.012;24.872;2023-03-01T07:16:58;9.87;;;7.20;;
8572;SDS011;4324;42.012;24.872;2023-03-01T07:19:25;6.53;;;5.17;;
8572;SDS011;4324;42.012;24.872;2023-03-01T07:21:52;6.00;;;5.40;;
8572;SDS011;4324;42.012;24.872;2023-03-01T07:24:20;9.47;;;5.80;;
8572;SDS011;4324;42.012;24.872;2023-03-01T07:26:48;8.97;;;7.17;;
8572;SDS011;4324;42.012;24.872;2023-03-01T07:29:17;12.77;;;11.00;;
8572;SDS011;4324;42.012;24.872;2023-03-01T07:31:44;10.80;;;7.60;;
8572;SDS011;4324;42.012;24.872;2023-03-01T07:34:11;10.17;;;7.30;;
8572;SDS011;4324;42.012;24.872;2023-03-01T07:36:38;10.93;;;6.27;;
8572;SDS011;4324;42.012;24.872;2023-03-01T07:39:08;9.30;;;6.17;;
8572;SDS011;4324;42.012;24.872;2023-03-01T07:41:35;17.33;;;9.87;;
8572;SDS011;4324;42.012;24.872;2023-03-01T07:44:03;8.03;;;5.63;;
8572;SDS011;4324;42.012;24.872;2023-03-01T07:46:32;10.03;;;5.77;;
8572;SDS011;4324;42.012;24.872;2023-03-01T07:48:59;10.17;;;5.60;;
8572;SDS011;4324;42.012;24.872;2023-03-01T07:51:26;12.20;;;7.17;;
8572;SDS011;4324;42.012;24.872;2023-03-01T07:53:53;6.83;;;4.43;;
8572;SDS011;4324;42.012;24.872;2023-03-01T07:56:20;16.67;;;12.40;;
8572;SDS011;4324;42.012;24.872;2023-03-01T07:58:47;15.37;;;11.20;;
8572;SDS011;4324;42.012;24.872;2023-03-01T08:01:14;25.27;;;16.80;;
8572;SDS011;4324;42.012;24.872;2023-03-01T08:03:44;12.07;;;7.03;;
8572;SDS011;4324;42.012;24.872;2023-03-01T08:06:12;8.97;;;6.43;;
8572;SDS011;4324;42.012;24.872;2023-03-01T08:08:40;7.13;;;5.90;;
8572;SDS011;4324;42.012;24.872;2023-03-01T08:11:10;10.33;;;7.63;;
8572;SDS011;4324;42.012;24.872;2023-03-01T08:13:38;6.03;;;5.43;;
8572;SDS011;4324;42.012;24.872;2023-03-01T08:16:06;7.47;;;5.80;;
8572;SDS011;4324;42.012;24.872;2023-03-01T08:18:34;9.60;;;8.60;;
8572;SDS011;4324;42.012;24.872;2023-03-01T08:21:03;9.10;;;7.90;;
8572;SDS011;4324;42.012;24.872;2023-03-01T08:23:32;7.23;;;6.37;;
8572;SDS011;4324;42.012;24.872;2023-03-01T08:26:03;5.83;;;5.23;;
8572;SDS011;4324;42.012;24.872;2023-03-01T08:28:32;6.37;;;4.90;;
8572;SDS011;4324;42.012;24.872;2023-03-01T08:30:59;10.47;;;6.53;;
8572;SDS011;4324;42.012;24.872;2023-03-01T08:33:27;6.20;;;5.00;;
8572;SDS011;4324;42.012;24.872;2023-03-01T08:36:02;3.20;;;2.90;;
8572;SDS011;4324;42.012;24.872;2023-03-01T08:38:32;6.50;;;4.43;;
8572;SDS011;4324;42.012;24.872;2023-03-01T08:40:59;4.67;;;3.93;;
8572;SDS011;4324;42.012;24.872;2023-03-01T08:43:27;6.00;;;4.43;;
8572;SDS011;4324;42.012;24.872;2023-03-01T08:45:54;6.10;;;4.40;;
8572;SDS011;4324;42.012;24.872;2023-03-01T08:48:21;7.30;;;5.27;;
8572;SDS011;4324;42.012;24.872;2023-03-01T08:50:48;5.90;;;4.67;;
8572;SDS011;4324;42.012;24.872;2023-03-01T08:53:16;6.43;;;5.53;;
8572;SDS011;4324;42.012;24.872;2023-03-01T08:55:43;5.13;;;3.90;;
8572;SDS011;4324;42.012;24.872;2023-03-01T08:58:10;6.87;;;5.57;;
8572;SDS011;4324;42.012;24.872;2023-03-01T09:00:37;10.00;;;7.47;;
8572;SDS011;4324;42.012;24.872;2023-03-01T09:03:05;9.43;;;7.93;;
8572;SDS011;4324;42.012;24.872;2023-03-01T09:05:32;7.10;;;5.17;;
8572;SDS011;4324;42.012;24.872;2023-03-01T09:07:59;4.97;;;4.30;;
8572;SDS011;4324;42.012;24.872;2023-03-01T09:10:27;7.47;;;5.80;;
8572;SDS011;4324;42.012;24.872;2023-03-01T09:12:54;9.67;;;8.17;;
8572;SDS011;4324;42.012;24.872;2023-03-01T09:15:21;9.87;;;7.70;;
8572;SDS011;4324;42.012;24.872;2023-03-01T09:17:48;12.77;;;9.50;;
8572;SDS011;4324;42.012;24.872;2023-03-01T09:20:15;22.33;;;15.73;;
8572;SDS011;4324;42.012;24.872;2023-03-01T09:22:42;18.87;;;15.77;;
8572;SDS011;4324;42.012;24.872;2023-03-01T09:25:09;24.40;;;16.83;;
8572;SDS011;4324;42.012;24.872;2023-03-01T09:27:38;17.20;;;13.87;;
8572;SDS011;4324;42.012;24.872;2023-03-01T09:30:05;6.17;;;5.63;;
8572;SDS011;4324;42.012;24.872;2023-03-01T09:32:33;16.43;;;13.13;;
8572;SDS011;4324;42.012;24.872;2023-03-01T09:35:00;9.60;;;7.23;;
8572;SDS011;4324;42.012;24.872;2023-03-01T09:37:29;9.27;;;7.57;;
8572;SDS011;4324;42.012;24.872;2023-03-01T09:39:57;7.70;;;6.93;;
8572;SDS011;4324;42.012;24.872;2023-03-01T09:42:24;8.70;;;6.87;;
8572;SDS011;4324;42.012;24.872;2023-03-01T09:44:54;4.73;;;4.30;;
8572;SDS011;4324;42.012;24.872;2023-03-01T09:47:25;5.43;;;4.70;;
8572;SDS011;4324;42.012;24.872;2023-03-01T09:49:57;13.83;;;11.47;;
8572;SDS011;4324;42.012;24.872;2023-03-01T09:52:29;9.27;;;7.07;;
8572;SDS011;4324;42.012;24.872;2023-03-01T09:55:07;5.47;;;4.97;;
8572;SDS011;4324;42.012;24.872;2023-03-01T09:57:40;7.17;;;6.47;;
8572;SDS011;4324;42.012;24.872;2023-03-01T10:03:03;7.57;;;6.57;;
8572;SDS011;4324;42.012;24.872;2023-03-01T10:05:41;13.00;;;9.77;;
8572;SDS011;4324;42.012;24.872;2023-03-01T10:11:01;8.67;;;7.77;;
8572;SDS011;4324;42.012;24.872;2023-03-01T10:13:41;8.47;;;7.60;;
8572;SDS011;4324;42.012;24.872;2023-03-01T10:16:21;7.93;;;7.07;;
8572;SDS011;4324;42.012;24.872;2023-03-01T10:18:58;9.53;;;7.57;;
8572;SDS011;4324;42.012;24.872;2023-03-01T10:21:29;9.60;;;7.77;;
8572;SDS011;4324;42.012;24.872;2023-03-01T10:23:59;32.50;;;21.43;;
8572;SDS011;4324;42.012;24.872;2023-03-01T10:26:40;17.33;;;13.17;;
8572;SDS011;4324;42.012;24.872;2023-03-01T10:29:13;20.57;;;15.47;;
8572;SDS011;4324;42.012;24.872;2023-03-01T10:31:42;17.77;;;12.00;;
8572;SDS011;4324;42.012;24.872;2023-03-01T10:34:13;9.23;;;7.77;;
8572;SDS011;4324;42.012;24.872;2023-03-01T10:36:42;8.73;;;6.87;;
8572;SDS011;4324;42.012;24.872;2023-03-01T10:39:14;8.07;;;6.73;;
8572;SDS011;4324;42.012;24.872;2023-03-01T10:41:54;6.23;;;5.60;;
8572;SDS011;4324;42.012;24.872;2023-03-01T10:47:19;13.03;;;11.47;;
8572;SDS011;4324;42.012;24.872;2023-03-01T10:49:51;5.77;;;5.27;;
8572;SDS011;4324;42.012;24.872;2023-03-01T10:52:31;10.77;;;6.53;;
8572;SDS011;4324;42.012;24.872;2023-03-01T10:55:01;5.77;;;5.17;;
8572;SDS011;4324;42.012;24.872;2023-03-01T10:57:47;5.73;;;4.73;;
8572;SDS011;4324;42.012;24.872;2023-03-01T11:00:15;18.93;;;10.73;;
8572;SDS011;4324;42.012;24.872;2023-03-01T11:02:48;5.83;;;5.10;;
8572;SDS011;4324;42.012;24.872;2023-03-01T11:05:17;7.27;;;5.20;;
8572;SDS011;4324;42.012;24.872;2023-03-01T11:07:49;12.30;;;8.10;;
8572;SDS011;4324;42.012;24.872;2023-03-01T11:10:18;15.67;;;10.23;;
8572;SDS011;4324;42.012;24.872;2023-03-01T11:12:50;13.43;;;8.57;;
8572;SDS011;4324;42.012;24.872;2023-03-01T11:15:23;7.90;;;5.33;;
8572;SDS011;4324;42.012;24.872;2023-03-01T11:17:52;14.40;;;8.90;;
8572;SDS011;4324;42.012;24.872;2023-03-01T11:20:32;7.97;;;6.50;;
8572;SDS011;4324;42.012;24.872;2023-03-01T11:23:03;7.27;;;5.00;;
8572;SDS011;4324;42.012;24.872;2023-03-01T11:25:37;7.00;;;5.03;;
8572;SDS011;4324;42.012;24.872;2023-03-01T11:28:10;7.93;;;5.80;;
8572;SDS011;4324;42.012;24.872;2023-03-01T11:30:43;3.93;;;3.53;;
8572;SDS011;4324;42.012;24.872;2023-03-01T11:33:23;4.93;;;4.40;;
8572;SDS011;4324;42.012;24.872;2023-03-01T11:36:00;4.00;;;3.60;;
8572;SDS011;4324;42.012;24.872;2023-03-01T11:38:32;7.23;;;4.90;;
8572;SDS011;4324;42.012;24.872;2023-03-01T11:41:06;21.57;;;9.70;;
8572;SDS011;4324;42.012;24.872;2023-03-01T11:43:36;4.50;;;4.10;;
8572;SDS011;4324;42.012;24.872;2023-03-01T11:49:14;11.00;;;6.90;;
8572;SDS011;4324;42.012;24.872;2023-03-01T11:52:06;7.13;;;5.70;;
8572;SDS011;4324;42.012;24.872;2023-03-01T11:54:46;7.40;;;6.70;;
8572;SDS011;4324;42.012;24.872;2023-03-01T11:57:23;5.33;;;4.83;;
8572;SDS011;4324;42.012;24.872;2023-03-01T12:00:07;5.03;;;3.83;;
8572;SDS011;4324;42.012;24.872;2023-03-01T12:02:48;9.17;;;8.23;;
8572;SDS011;4324;42.012;24.872;2023-03-01T12:08:31;22.13;;;18.33;;
8572;SDS011;4324;42.012;24.872;2023-03-01T12:11:03;15.67;;;12.57;;
8572;SDS011;4324;42.012;24.872;2023-03-01T12:13:49;12.07;;;10.10;;
8572;SDS011;4324;42.012;24.872;2023-03-01T12:16:34;22.40;;;17.00;;
8572;SDS011;4324;42.012;24.872;2023-03-01T12:19:15;14.57;;;12.53;;
8572;SDS011;4324;42.012;24.872;2023-03-01T12:22:04;15.00;;;11.57;;
8572;SDS011;4324;42.012;24.872;2023-03-01T12:24:48;11.47;;;8.80;;
8572;SDS011;4324;42.012;24.872;2023-03-01T12:27:44;8.90;;;6.27;;
8572;SDS011;4324;42.012;24.872;2023-03-01T12:30:25;9.17;;;7.13;;
8572;SDS011;4324;42.012;24.872;2023-03-01T12:33:05;7.67;;;6.60;;
8572;SDS011;4324;42.012;24.872;2023-03-01T12:35:47;7.13;;;5.80;;
8572;SDS011;4324;42.012;24.872;2023-03-01T12:38:31;7.27;;;6.57;;
8572;SDS011;4324;42.012;24.872;2023-03-01T12:43:59;7.23;;;5.77;;
8572;SDS011;4324;42.012;24.872;2023-03-01T12:46:38;8.23;;;5.33;;
8572;SDS011;4324;42.012;24.872;2023-03-01T12:49:19;6.87;;;6.03;;
8572;SDS011;4324;42.012;24.872;2023-03-01T12:51:54;10.30;;;7.50;;
8572;SDS011;4324;42.012;24.872;2023-03-01T12:54:27;22.93;;;17.87;;
8572;SDS011;4324;42.012;24.872;2023-03-01T12:56:57;11.10;;;7.97;;
8572;SDS011;4324;42.012;24.872;2023-03-01T12:59:42;13.90;;;10.40;;
8572;SDS011;4324;42.012;24.872;2023-03-01T13:02:16;6.40;;;5.37;;
8572;SDS011;4324;42.012;24.872;2023-03-01T13:04:53;6.97;;;4.93;;
8572;SDS011;4324;42.012;24.872;2023-03-01T13:07:32;8.90;;;6.00;;
8572;SDS011;4324;42.012;24.872;2023-03-01T13:10:18;7.43;;;6.57;;
8572;SDS011;4324;42.012;24.872;2023-03-01T13:12:52;7.10;;;5.40;;
8572;SDS011;4324;42.012;24.872;2023-03-01T13:15:29;12.13;;;9.10;;
8572;SDS011;4324;42.012;24.872;2023-03-01T13:17:58;12.00;;;9.03;;
8572;SDS011;4324;42.012;24.872;2023-03-01T13:20:31;8.90;;;8.00;;
8572;SDS011;4324;42.012;24.872;2023-03-01T13:23:05;7.90;;;6.63;;
8572;SDS011;4324;42.012;24.872;2023-03-01T13:28:49;8.60;;;6.67;;
8572;SDS011;4324;42.012;24.872;2023-03-01T13:34:45;6.50;;;5.40;;
8572;SDS011;4324;42.012;24.872;2023-03-01T13:37:19;4.87;;;4.43;;
8572;SDS011;4324;42.012;24.872;2023-03-01T13:39:49;6.97;;;5.83;;
8572;SDS011;4324;42.012;24.872;2023-03-01T13:45:19;8.17;;;7.40;;
8572;SDS011;4324;42.012;24.872;2023-03-01T13:47:49;12.70;;;10.63;;
8572;SDS011;4324;42.012;24.872;2023-03-01T13:50:24;12.50;;;8.63;;
8572;SDS011;4324;42.012;24.872;2023-03-01T13:52:53;8.33;;;7.53;;
8572;SDS011;4324;42.012;24.872;2023-03-01T13:55:25;8.97;;;7.40;;
8572;SDS011;4324;42.012;24.872;2023-03-01T13:58:05;9.63;;;8.50;;
8572;SDS011;4324;42.012;24.872;2023-03-01T14:00:42;7.90;;;6.30;;
8572;SDS011;4324;42.012;24.872;2023-03-01T14:03:10;7.53;;;6.80;;
8572;SDS011;4324;42.012;24.872;2023-03-01T14:05:40;6.40;;;5.80;;
8572;SDS011;4324;42.012;24.872;2023-03-01T14:08:19;7.53;;;6.73;;
8572;SDS011;4324;42.012;24.872;2023-03-01T14:10:52;9.73;;;8.83;;
8572;SDS011;4324;42.012;24.872;2023-03-01T14:13:31;9.30;;;8.47;;
8572;SDS011;4324;42.012;24.872;2023-03-01T14:16:14;9.80;;;8.83;;
8572;SDS011;4324;42.012;24.872;2023-03-01T14:18:58;9.20;;;7.87;;
8572;SDS011;4324;42.012;24.872;2023-03-01T14:21:36;8.40;;;7.60;;
8572;SDS011;4324;42.012;24.872;2023-03-01T14:24:04;11.43;;;9.93;;
8572;SDS011;4324;42.012;24.872;2023-03-01T14:26:31;12.50;;;11.30;;
8572;SDS011;4324;42.012;24.872;2023-03-01T14:29:03;8.87;;;7.97;;
8572;SDS011;4324;42.012;24.872;2023-03-01T14:31:31;9.10;;;8.20;;
8572;SDS011;4324;42.012;24.872;2023-03-01T14:34:02;7.17;;;6.53;;
8572;SDS011;4324;42.012;24.872;2023-03-01T14:36:30;7.67;;;6.87;;
8572;SDS011;4324;42.012;24.872;2023-03-01T14:38:59;6.40;;;5.43;;
8572;SDS011;4324;42.012;24.872;2023-03-01T14:41:30;5.73;;;5.13;;
8572;SDS011;4324;42.012;24.872;2023-03-01T14:44:00;8.37;;;6.33;;
8572;SDS011;4324;42.012;24.872;2023-03-01T14:46:30;10.03;;;8.37;;
8572;SDS011;4324;42.012;24.872;2023-03-01T14:49:01;12.37;;;8.70;;
8572;SDS011;4324;42.012;24.872;2023-03-01T14:51:30;10.50;;;9.03;;
8572;SDS011;4324;42.012;24.872;2023-03-01T14:54:01;9.93;;;8.70;;
8572;SDS011;4324;42.012;24.872;2023-03-01T14:56:28;12.23;;;11.10;;
8572;SDS011;4324;42.012;24.872;2023-03-01T14:59:10;8.60;;;7.80;;
8572;SDS011;4324;42.012;24.872;2023-03-01T15:01:39;9.50;;;8.27;;
8572;SDS011;4324;42.012;24.872;2023-03-01T15:04:08;12.73;;;11.33;;
8572;SDS011;4324;42.012;24.872;2023-03-01T15:06:39;11.87;;;10.60;;
8572;SDS011;4324;42.012;24.872;2023-03-01T15:09:06;11.10;;;9.87;;
8572;SDS011;4324;42.012;24.872;2023-03-01T15:11:38;13.47;;;10.40;;
8572;SDS011;4324;42.012;24.872;2023-03-01T15:17:16;15.50;;;9.53;;
8572;SDS011;4324;42.012;24.872;2023-03-01T15:19:53;9.50;;;8.10;;
8572;SDS011;4324;42.012;24.872;2023-03-01T15:22:20;6.93;;;6.17;;
8572;SDS011;4324;42.012;24.872;2023-03-01T15:24:48;7.53;;;6.23;;
8572;SDS011;4324;42.012;24.872;2023-03-01T15:27:16;9.33;;;6.70;;
8572;SDS011;4324;42.012;24.872;2023-03-01T15:29:48;7.77;;;6.63;;
8572;SDS011;4324;42.012;24.872;2023-03-01T15:32:25;5.40;;;4.90;;
8572;SDS011;4324;42.012;24.872;2023-03-01T15:34:55;6.23;;;5.63;;
8572;SDS011;4324;42.012;24.872;2023-03-01T15:37:39;11.20;;;9.00;;
8572;SDS011;4324;42.012;24.872;2023-03-01T15:40:20;12.43;;;11.13;;
8572;SDS011;4324;42.012;24.872;2023-03-01T15:42:50;12.20;;;10.30;;
8572;SDS011;4324;42.012;24.872;2023-03-01T15:45:22;12.83;;;11.53;;
8572;SDS011;4324;42.012;24.872;2023-03-01T15:47:54;20.83;;;16.47;;
8572;SDS011;4324;42.012;24.872;2023-03-01T15:50:24;12.33;;;11.00;;